Time;durP1;ratioP1;P1;durP2;ratioP2;P2;SDS_P1;SDS_P2;PMS_P1;PMS_P2;Temp;Humidity;BMP_temperature;BMP_pressure;BME280_temperature;BME280_humidity;BME280_pressure;Samples;Min_cycle;Max_cycle;Signal;HPM_P1;HPM_P2
2023/07/03 00:01:52;;;;;;;0.40;0.40;;;;;;;;;;5061985;28;20041;-79
2023/07/03 00:04:18;;;;;;;0.20;0.10;;;;;;;;;;5043252;28;20047;-80
2023/07/03 00:06:45;;;;;;;0.20;0.10;;;;;;;;;;5059585;28;20044;-81
2023/07/03 00:09:12;;;;;;;0.30;0.28;;;;;;;;;;5062527;28;20295;-80
2023/07/03 00:11:38;;;;;;;0.30;0.20;;;;;;;;;;5062650;28;20036;-77
2023/07/03 00:14:04;;;;;;;0.20;0.10;;;;;;;;;;5050071;28;20044;-79
2023/07/03 00:16:30;;;;;;;0.20;0.20;;;;;;;;;;5062808;28;20036;-80
2023/07/03 00:18:56;;;;;;;0.20;0.10;;;;;;;;;;5044232;28;20093;-78
2023/07/03 00:21:22;;;;;;;0.20;0.10;;;;;;;;;;5040353;28;20043;-81
2023/07/03 00:23:48;;;;;;;0.25;0.20;;;;;;;;;;5055005;28;20059;-79
2023/07/03 00:26:14;;;;;;;0.20;0.10;;;;;;;;;;5063639;28;20049;-79
2023/07/03 00:28:40;;;;;;;0.20;0.10;;;;;;;;;;5044453;28;20059;-81
2023/07/03 00:31:06;;;;;;;0.20;0.15;;;;;;;;;;5059291;28;20037;-81
2023/07/03 00:33:32;;;;;;;0.47;0.43;;;;;;;;;;5060253;28;20548;-81
2023/07/03 00:35:58;;;;;;;1.08;1.00;;;;;;;;;;5059133;28;20059;-81
2023/07/03 00:38:24;;;;;;;0.20;0.10;;;;;;;;;;5060473;28;20036;-80
2023/07/03 00:40:50;;;;;;;0.20;0.10;;;;;;;;;;5043542;28;20040;-79
2023/07/03 00:43:17;;;;;;;0.20;0.15;;;;;;;;;;5062642;28;20032;-81
2023/07/03 00:45:43;;;;;;;0.55;0.52;;;;;;;;;;5064341;28;20093;-79
2023/07/03 00:48:09;;;;;;;0.20;0.10;;;;;;;;;;5062657;28;20040;-81
2023/07/03 00:50:35;;;;;;;0.93;0.77;;;;;;;;;;5056738;28;20047;-82
2023/07/03 00:53:03;;;;;;;0.20;0.10;;;;;;;;;;5064887;28;20127;-79
2023/07/03 00:55:30;;;;;;;0.20;0.20;;;;;;;;;;5039776;28;20044;-80
2023/07/03 00:57:56;;;;;;;0.22;0.22;;;;;;;;;;5060814;28;20087;-84
2023/07/03 01:00:25;;;;;;;0.30;0.20;;;;;;;;;;5062022;28;20501;-80
2023/07/03 01:03:14;;;;;;;0.20;0.10;;;;;;;;;;5063918;28;20469;-81
2023/07/03 01:05:43;;;;;;;0.20;0.10;;;;;;;;;;5056727;28;20106;-81
2023/07/03 01:08:11;;;;;;;0.50;0.50;;;;;;;;;;5064281;28;20433;-80
2023/07/03 01:10:38;;;;;;;0.65;0.65;;;;;;;;;;5064101;28;20064;-81
2023/07/03 01:13:05;;;;;;;0.73;0.73;;;;;;;;;;5049312;28;20428;-82
2023/07/03 01:15:34;;;;;;;0.20;0.10;;;;;;;;;;5050299;28;20036;-81
2023/07/03 01:18:02;;;;;;;0.20;0.10;;;;;;;;;;5047200;28;20036;-81
2023/07/03 01:20:33;;;;;;;0.20;0.10;;;;;;;;;;5046933;28;20029;-81
2023/07/03 01:23:09;;;;;;;0.47;0.35;;;;;;;;;;5062574;28;20037;-81
2023/07/03 01:28:16;;;;;;;1.48;1.35;;;;;;;;;;1950522;22;20068;-84
2023/07/03 01:30:43;;;;;;;0.20;0.20;;;;;;;;;;5019416;28;20400;-90
2023/07/03 01:33:14;;;;;;;0.20;0.10;;;;;;;;;;5006576;28;20033;-87
2023/07/03 01:35:40;;;;;;;0.20;0.10;;;;;;;;;;5002348;28;20045;-88
2023/07/03 01:38:07;;;;;;;0.20;0.13;;;;;;;;;;4999038;28;20059;-90
2023/07/03 01:40:34;;;;;;;0.55;0.47;;;;;;;;;;5017705;28;20045;-87
2023/07/03 01:43:00;;;;;;;0.28;0.25;;;;;;;;;;4996974;28;20037;-84
2023/07/03 01:45:26;;;;;;;0.43;0.43;;;;;;;;;;5010668;28;20032;-84
2023/07/03 01:47:52;;;;;;;0.20;0.10;;;;;;;;;;4998557;28;20170;-86
2023/07/03 01:50:21;;;;;;;0.20;0.10;;;;;;;;;;5005557;28;20036;-85
2023/07/03 01:52:51;;;;;;;0.63;0.63;;;;;;;;;;5000959;28;20033;-83
2023/07/03 01:55:40;;;;;;;0.20;0.10;;;;;;;;;;4996968;28;20094;-84
2023/07/03 01:58:18;;;;;;;0.20;0.13;;;;;;;;;;5005197;28;20033;-84
2023/07/03 02:00:48;;;;;;;0.20;0.10;;;;;;;;;;5000453;28;20044;-85
2023/07/03 02:03:17;;;;;;;0.30;0.20;;;;;;;;;;4998190;28;20397;-82
2023/07/03 02:05:44;;;;;;;0.20;0.10;;;;;;;;;;5000048;28;20045;-84
2023/07/03 02:08:11;;;;;;;0.20;0.10;;;;;;;;;;5004590;28;20052;-85
2023/07/03 02:10:38;;;;;;;0.20;0.10;;;;;;;;;;4997229;28;20123;-85
2023/07/03 02:13:04;;;;;;;1.05;0.75;;;;;;;;;;4996002;28;20159;-83
2023/07/03 02:15:30;;;;;;;0.70;0.57;;;;;;;;;;4998593;28;20532;-84
2023/07/03 02:17:57;;;;;;;0.57;0.52;;;;;;;;;;4995814;28;20045;-84
2023/07/03 02:20:23;;;;;;;0.68;0.68;;;;;;;;;;4993976;28;20039;-82
2023/07/03 02:22:49;;;;;;;0.20;0.13;;;;;;;;;;4997550;28;20830;-84
2023/07/03 02:25:16;;;;;;;0.20;0.10;;;;;;;;;;5018413;28;20305;-86
2023/07/03 02:27:50;;;;;;;0.20;0.10;;;;;;;;;;5013146;28;20044;-89
2023/07/03 02:30:19;;;;;;;0.20;0.10;;;;;;;;;;5001352;28;20037;-86
2023/07/03 02:32:45;;;;;;;0.20;0.10;;;;;;;;;;5018619;28;20444;-84
2023/07/03 02:35:11;;;;;;;0.20;0.10;;;;;;;;;;5012488;28;20718;-84
2023/07/03 02:37:37;;;;;;;0.20;0.10;;;;;;;;;;4999774;28;20037;-84
2023/07/03 02:40:13;;;;;;;0.20;0.10;;;;;;;;;;4998350;28;20043;-85
2023/07/03 02:42:39;;;;;;;0.20;0.15;;;;;;;;;;5011896;28;20044;-86
2023/07/03 02:45:05;;;;;;;0.30;0.28;;;;;;;;;;5015102;28;20122;-84
2023/07/03 02:47:36;;;;;;;1.63;1.48;;;;;;;;;;5002709;28;20079;-86
2023/07/03 02:50:03;;;;;;;0.20;0.10;;;;;;;;;;5000509;28;20524;-84
2023/07/03 02:52:29;;;;;;;0.20;0.10;;;;;;;;;;4996472;28;20060;-83
2023/07/03 02:54:55;;;;;;;0.20;0.10;;;;;;;;;;4997976;28;20656;-87
2023/07/03 02:57:21;;;;;;;0.45;0.30;;;;;;;;;;4999609;28;20127;-84
2023/07/03 02:59:47;;;;;;;0.20;0.10;;;;;;;;;;5022128;28;20037;-85
2023/07/03 03:02:13;;;;;;;0.73;0.70;;;;;;;;;;5004581;28;20106;-83
2023/07/03 03:04:39;;;;;;;0.22;0.20;;;;;;;;;;5002181;28;20071;-85
2023/07/03 03:07:05;;;;;;;0.20;0.17;;;;;;;;;;5004285;28;20045;-82
2023/07/03 03:09:31;;;;;;;0.20;0.10;;;;;;;;;;5019245;28;20049;-87
2023/07/03 03:11:57;;;;;;;0.20;0.10;;;;;;;;;;4999745;28;20077;-84
2023/07/03 03:14:26;;;;;;;0.20;0.10;;;;;;;;;;4996090;28;20045;-84
2023/07/03 03:16:55;;;;;;;0.20;0.13;;;;;;;;;;5019618;28;20050;-86
2023/07/03 03:19:27;;;;;;;3.45;1.42;;;;;;;;;;5020531;28;20067;-84
2023/07/03 03:21:56;;;;;;;0.20;0.10;;;;;;;;;;5005201;28;20086;-85
2023/07/03 03:24:22;;;;;;;0.20;0.10;;;;;;;;;;5004328;28;20098;-84
2023/07/03 03:26:54;;;;;;;0.20;0.10;;;;;;;;;;4999979;28;20033;-88
2023/07/03 03:29:20;;;;;;;0.20;0.10;;;;;;;;;;4998064;28;20412;-84
2023/07/03 03:31:49;;;;;;;0.20;0.10;;;;;;;;;;5005530;28;20036;-86
2023/07/03 03:34:25;;;;;;;0.20;0.10;;;;;;;;;;5004993;28;20037;-84
2023/07/03 03:36:57;;;;;;;0.20;0.10;;;;;;;;;;5014847;28;20323;-86
2023/07/03 03:39:29;;;;;;;0.32;0.32;;;;;;;;;;5022497;28;20041;-85
2023/07/03 03:41:55;;;;;;;0.20;0.10;;;;;;;;;;5002784;28;20413;-84
2023/07/03 03:44:27;;;;;;;0.20;0.13;;;;;;;;;;5016781;28;20036;-85
2023/07/03 03:46:53;;;;;;;0.20;0.20;;;;;;;;;;5000316;28;20050;-84
2023/07/03 03:49:22;;;;;;;0.20;0.10;;;;;;;;;;5020859;28;20037;-83
2023/07/03 03:51:48;;;;;;;0.20;0.10;;;;;;;;;;5021213;28;20763;-84
2023/07/03 03:54:16;;;;;;;0.20;0.10;;;;;;;;;;5013293;28;20037;-86
2023/07/03 03:56:46;;;;;;;0.20;0.10;;;;;;;;;;5004831;28;20507;-86
2023/07/03 03:59:12;;;;;;;0.20;0.10;;;;;;;;;;5002141;28;20057;-88
2023/07/03 04:01:38;;;;;;;0.20;0.10;;;;;;;;;;5002418;28;20037;-86
2023/07/03 04:04:06;;;;;;;0.20;0.10;;;;;;;;;;5001275;28;20056;-86
2023/07/03 04:06:44;;;;;;;0.20;0.10;;;;;;;;;;4999756;28;20164;-83
2023/07/03 04:09:10;;;;;;;0.35;0.35;;;;;;;;;;5002702;28;20048;-87
2023/07/03 04:11:40;;;;;;;0.20;0.10;;;;;;;;;;5002182;28;20037;-85
2023/07/03 04:14:06;;;;;;;0.20;0.10;;;;;;;;;;5005382;28;20128;-84
2023/07/03 04:16:35;;;;;;;0.40;0.40;;;;;;;;;;5015561;28;20052;-84
2023/07/03 04:19:01;;;;;;;7.80;0.80;;;;;;;;;;5001994;28;20083;-85
2023/07/03 04:21:31;;;;;;;0.28;0.28;;;;;;;;;;5020415;28;20066;-86
2023/07/03 04:24:03;;;;;;;0.20;0.10;;;;;;;;;;5002066;28;20044;-89
2023/07/03 04:26:44;;;;;;;0.20;0.17;;;;;;;;;;5003806;28;20092;-84
2023/07/03 04:29:10;;;;;;;0.20;0.10;;;;;;;;;;5003897;28;20102;-84
2023/07/03 04:31:39;;;;;;;0.20;0.10;;;;;;;;;;5015855;28;20152;-90
2023/07/03 04:34:07;;;;;;;0.20;0.10;;;;;;;;;;5003191;28;20036;-83
2023/07/03 04:36:33;;;;;;;0.20;0.10;;;;;;;;;;5002587;28;20111;-85
2023/07/03 04:39:07;;;;;;;1.50;0.20;;;;;;;;;;5021769;28;20041;-87
2023/07/03 04:41:33;;;;;;;0.20;0.10;;;;;;;;;;5005073;28;20064;-84
2023/07/03 04:44:00;;;;;;;0.20;0.10;;;;;;;;;;5018777;28;20039;-85
2023/07/03 04:46:30;;;;;;;0.20;0.03;;;;;;;;;;4998069;28;20040;-83
2023/07/03 04:49:03;;;;;;;0.20;0.10;;;;;;;;;;5000815;28;20045;-84
2023/07/03 04:51:30;;;;;;;0.20;0.10;;;;;;;;;;5000955;28;20041;-85
2023/07/03 04:54:00;;;;;;;0.20;0.10;;;;;;;;;;5007867;28;20051;-83
2023/07/03 04:56:27;;;;;;;0.20;0.00;;;;;;;;;;5001198;28;20536;-84
2023/07/03 04:58:56;;;;;;;0.20;0.05;;;;;;;;;;5002879;28;20485;-83
2023/07/03 05:01:24;;;;;;;0.20;0.10;;;;;;;;;;4996905;28;20068;-85
2023/07/03 05:03:55;;;;;;;0.20;0.20;;;;;;;;;;5016985;28;20422;-85
2023/07/03 05:06:22;;;;;;;0.20;0.10;;;;;;;;;;4994708;28;20044;-84
2023/07/03 05:08:48;;;;;;;0.20;0.10;;;;;;;;;;5012570;28;20037;-84
2023/07/03 05:11:17;;;;;;;0.20;0.10;;;;;;;;;;5014610;28;20141;-84
2023/07/03 05:13:44;;;;;;;0.20;0.10;;;;;;;;;;4995438;28;20051;-84
2023/07/03 05:16:10;;;;;;;0.20;0.20;;;;;;;;;;5000017;28;20042;-84
2023/07/03 05:18:38;;;;;;;0.20;0.10;;;;;;;;;;5000815;28;20037;-83
2023/07/03 05:21:07;;;;;;;0.20;0.10;;;;;;;;;;5012790;28;20473;-83
2023/07/03 05:23:33;;;;;;;0.20;0.10;;;;;;;;;;5011651;28;20044;-85
2023/07/03 05:25:59;;;;;;;0.20;0.00;;;;;;;;;;5014114;28;20052;-84
2023/07/03 05:28:25;;;;;;;1.45;0.90;;;;;;;;;;5004023;28;20047;-84
2023/07/03 05:30:55;;;;;;;0.20;0.10;;;;;;;;;;5017782;28;20044;-81
2023/07/03 05:33:21;;;;;;;0.20;0.10;;;;;;;;;;4997647;28;20523;-84
2023/07/03 05:35:47;;;;;;;0.20;0.10;;;;;;;;;;5015927;28;20041;-83
2023/07/03 05:38:13;;;;;;;0.20;0.10;;;;;;;;;;5000358;28;20072;-83
2023/07/03 05:40:39;;;;;;;0.20;0.10;;;;;;;;;;5000282;28;20045;-83
2023/07/03 05:43:05;;;;;;;0.20;0.10;;;;;;;;;;5015564;28;20055;-84
2023/07/03 05:45:31;;;;;;;0.20;0.10;;;;;;;;;;5009468;28;20033;-80
2023/07/03 05:47:57;;;;;;;0.20;0.10;;;;;;;;;;5002150;28;20040;-82
2023/07/03 05:50:24;;;;;;;0.20;0.10;;;;;;;;;;5031518;28;20045;-82
2023/07/03 05:52:50;;;;;;;0.20;0.10;;;;;;;;;;4998933;28;20133;-83
2023/07/03 05:55:16;;;;;;;0.20;0.10;;;;;;;;;;5012460;28;20075;-83
2023/07/03 05:57:42;;;;;;;0.20;0.10;;;;;;;;;;5000621;28;20044;-84
2023/07/03 06:00:15;;;;;;;0.20;0.10;;;;;;;;;;4998864;28;20034;-84
2023/07/03 06:02:47;;;;;;;0.20;0.10;;;;;;;;;;5001379;28;20111;-82
2023/07/03 06:05:15;;;;;;;0.30;0.10;;;;;;;;;;5007539;28;20049;-82
2023/07/03 06:07:41;;;;;;;0.20;0.10;;;;;;;;;;5013188;28;20090;-84
2023/07/03 06:10:08;;;;;;;0.20;0.10;;;;;;;;;;5011678;28;20056;-84
2023/07/03 06:12:34;;;;;;;0.20;0.20;;;;;;;;;;5009739;28;20124;-85
2023/07/03 06:15:00;;;;;;;0.20;0.10;;;;;;;;;;5008258;28;20056;-84
2023/07/03 06:17:27;;;;;;;0.20;0.10;;;;;;;;;;4994664;28;20055;-80
2023/07/03 06:20:06;;;;;;;0.25;0.17;;;;;;;;;;5020113;28;20497;-84
2023/07/03 06:22:41;;;;;;;0.20;0.10;;;;;;;;;;5014735;28;20053;-83
2023/07/03 06:25:07;;;;;;;0.50;0.40;;;;;;;;;;5013275;28;20041;-83
2023/07/03 06:27:42;;;;;;;0.20;0.10;;;;;;;;;;5016856;28;20044;-83
2023/07/03 06:30:08;;;;;;;0.20;0.10;;;;;;;;;;4992033;28;20079;-89
2023/07/03 06:32:34;;;;;;;0.20;0.10;;;;;;;;;;5000771;28;20053;-83
2023/07/03 06:35:03;;;;;;;0.20;0.15;;;;;;;;;;5023142;28;20044;-82
2023/07/03 06:37:32;;;;;;;0.20;0.10;;;;;;;;;;5023635;28;20044;-82
2023/07/03 06:39:58;;;;;;;0.20;0.20;;;;;;;;;;5014666;28;20068;-84
2023/07/03 06:42:24;;;;;;;0.20;0.10;;;;;;;;;;5017866;28;20041;-81
2023/07/03 06:44:50;;;;;;;0.20;0.10;;;;;;;;;;5018248;28;20049;-86
2023/07/03 06:47:16;;;;;;;0.20;0.10;;;;;;;;;;4997324;28;20036;-84
2023/07/03 06:49:42;;;;;;;0.20;0.10;;;;;;;;;;5022077;28;20401;-83
2023/07/03 06:52:10;;;;;;;0.20;0.10;;;;;;;;;;5022996;28;20037;-82
2023/07/03 06:54:36;;;;;;;0.20;0.10;;;;;;;;;;4998356;28;20502;-85
2023/07/03 06:57:02;;;;;;;0.20;0.10;;;;;;;;;;5011426;28;20128;-85
2023/07/03 06:59:29;;;;;;;0.20;0.10;;;;;;;;;;5021159;28;20076;-86
2023/07/03 07:01:55;;;;;;;0.20;0.10;;;;;;;;;;4997478;28;20076;-85
2023/07/03 07:04:29;;;;;;;0.45;0.40;;;;;;;;;;5017708;28;20127;-83
2023/07/03 07:06:55;;;;;;;0.20;0.10;;;;;;;;;;4995456;28;20490;-83
2023/07/03 07:09:24;;;;;;;0.20;0.10;;;;;;;;;;5001596;28;20121;-84
2023/07/03 07:11:51;;;;;;;0.20;0.10;;;;;;;;;;5007835;28;20071;-86
2023/07/03 07:14:17;;;;;;;0.20;0.15;;;;;;;;;;5020948;28;21508;-85
2023/07/03 07:16:43;;;;;;;0.20;0.10;;;;;;;;;;5013041;28;20044;-84
2023/07/03 07:19:13;;;;;;;0.20;0.10;;;;;;;;;;5003968;28;20044;-85
2023/07/03 07:21:43;;;;;;;0.20;0.10;;;;;;;;;;5000027;28;20186;-85
2023/07/03 07:24:14;;;;;;;0.20;0.10;;;;;;;;;;5019657;28;20037;-84
2023/07/03 07:26:41;;;;;;;0.20;0.20;;;;;;;;;;5035590;22;22122;-82
2023/07/03 07:29:07;;;;;;;0.20;0.10;;;;;;;;;;5035564;28;20041;-81
2023/07/03 07:31:36;;;;;;;0.20;0.10;;;;;;;;;;5033288;28;20509;-82
2023/07/03 07:34:03;;;;;;;0.20;0.10;;;;;;;;;;5025252;28;20441;-80
2023/07/03 07:36:30;;;;;;;0.20;0.10;;;;;;;;;;5035959;28;20037;-81
2023/07/03 07:38:56;;;;;;;0.30;0.20;;;;;;;;;;5013264;28;20222;-78
2023/07/03 07:41:24;;;;;;;0.20;0.10;;;;;;;;;;5038016;28;20587;-80
2023/07/03 07:43:51;;;;;;;0.20;0.10;;;;;;;;;;5021309;28;20041;-82
2023/07/03 07:46:17;;;;;;;0.20;0.10;;;;;;;;;;5027055;28;20037;-82
2023/07/03 07:48:45;;;;;;;1.10;1.00;;;;;;;;;;5035003;28;20567;-82
2023/07/03 07:51:11;;;;;;;0.20;0.10;;;;;;;;;;5040346;28;20041;-82
2023/07/03 07:53:38;;;;;;;0.20;0.10;;;;;;;;;;5035400;28;20036;-79
2023/07/03 07:56:07;;;;;;;0.20;0.10;;;;;;;;;;5044963;28;20029;-79
2023/07/03 07:58:33;;;;;;;0.20;0.10;;;;;;;;;;5041114;28;20071;-80
2023/07/03 08:00:59;;;;;;;0.20;0.10;;;;;;;;;;5041499;28;20029;-80
2023/07/03 08:03:25;;;;;;;0.77;0.43;;;;;;;;;;5041779;28;20033;-85
2023/07/03 08:05:56;;;;;;;7.75;1.75;;;;;;;;;;5040808;28;20053;-77
2023/07/03 08:08:22;;;;;;;0.20;0.10;;;;;;;;;;5029746;28;20092;-80
2023/07/03 08:10:55;;;;;;;0.30;0.20;;;;;;;;;;5035356;28;20476;-80
2023/07/03 08:13:21;;;;;;;0.20;0.10;;;;;;;;;;5042461;28;20525;-82
2023/07/03 08:15:47;;;;;;;0.20;0.10;;;;;;;;;;5038099;28;20033;-78
2023/07/03 08:18:14;;;;;;;0.20;0.10;;;;;;;;;;5024651;28;20040;-82
2023/07/03 08:20:40;;;;;;;0.20;0.10;;;;;;;;;;5029872;28;20041;-81
2023/07/03 08:23:07;;;;;;;0.20;0.10;;;;;;;;;;5015994;28;20135;-82
2023/07/03 08:25:33;;;;;;;0.20;0.10;;;;;;;;;;5044014;28;20041;-82
2023/07/03 08:27:59;;;;;;;0.30;0.10;;;;;;;;;;5016958;28;20505;-84
2023/07/03 08:30:25;;;;;;;0.20;0.10;;;;;;;;;;5038412;28;20513;-83
2023/07/03 08:32:51;;;;;;;0.20;0.10;;;;;;;;;;5034245;28;20049;-87
2023/07/03 08:35:17;;;;;;;0.20;0.20;;;;;;;;;;5036501;28;20040;-84
2023/07/03 08:37:44;;;;;;;0.20;0.10;;;;;;;;;;5034758;28;20561;-84
2023/07/03 08:40:11;;;;;;;0.20;0.10;;;;;;;;;;5016522;28;20120;-85
2023/07/03 08:42:49;;;;;;;0.20;0.10;;;;;;;;;;5042323;28;20033;-80
2023/07/03 08:45:17;;;;;;;0.20;0.10;;;;;;;;;;5040484;28;20529;-81
2023/07/03 08:47:44;;;;;;;0.20;0.20;;;;;;;;;;5017889;28;20041;-83
2023/07/03 08:50:12;;;;;;;0.20;0.13;;;;;;;;;;5031724;28;20034;-80
2023/07/03 08:52:41;;;;;;;0.20;0.10;;;;;;;;;;5041631;28;20525;-83
2023/07/03 08:55:10;;;;;;;0.20;0.10;;;;;;;;;;5032413;28;20131;-80
2023/07/03 08:57:36;;;;;;;0.20;0.10;;;;;;;;;;5022087;28;20516;-82
2023/07/03 09:00:05;;;;;;;0.20;0.10;;;;;;;;;;5038752;28;20105;-82
2023/07/03 09:02:55;;;;;;;0.20;0.08;;;;;;;;;;5035543;28;20037;-83
2023/07/03 09:05:27;;;;;;;0.20;0.10;;;;;;;;;;5029065;28;20056;-83
2023/07/03 09:07:55;;;;;;;0.20;0.10;;;;;;;;;;5032991;28;20045;-84
2023/07/03 09:10:35;;;;;;;0.20;0.10;;;;;;;;;;5044614;28;20159;-84
2023/07/03 09:13:07;;;;;;;0.20;0.10;;;;;;;;;;5035806;28;20405;-88
2023/07/03 09:15:42;;;;;;;4.95;0.55;;;;;;;;;;5038924;28;20032;-84
2023/07/03 09:18:13;;;;;;;0.20;0.10;;;;;;;;;;5043362;28;20132;-81
2023/07/03 09:20:41;;;;;;;0.20;0.10;;;;;;;;;;5040189;28;20032;-83
2023/07/03 09:23:13;;;;;;;0.20;0.10;;;;;;;;;;5041348;28;20056;-84
2023/07/03 09:25:46;;;;;;;0.20;0.10;;;;;;;;;;5033672;28;20051;-85
2023/07/03 09:28:12;;;;;;;;;;;;;;;;;;5033164;28;20386;-82
2023/07/03 09:30:38;;;;;;;0.20;0.10;;;;;;;;;;5045360;28;19938;-84
2023/07/03 09:33:06;;;;;;;0.20;0.10;;;;;;;;;;5043454;28;20064;-84
2023/07/03 09:35:41;;;;;;;0.20;0.10;;;;;;;;;;5027192;28;20657;-80
2023/07/03 09:38:27;;;;;;;0.20;0.10;;;;;;;;;;5038469;28;20171;-82
2023/07/03 09:40:54;;;;;;;0.20;0.00;;;;;;;;;;5038725;28;20044;-84
2023/07/03 09:43:21;;;;;;;0.20;0.10;;;;;;;;;;5038964;28;20056;-84
2023/07/03 09:45:48;;;;;;;0.20;0.10;;;;;;;;;;5033515;28;20088;-86
2023/07/03 09:48:25;;;;;;;0.20;0.10;;;;;;;;;;5030948;28;20047;-85
2023/07/03 09:50:51;;;;;;;0.20;0.10;;;;;;;;;;5012807;28;20172;-83
2023/07/03 09:53:20;;;;;;;0.20;0.10;;;;;;;;;;5040707;28;20044;-82
2023/07/03 09:55:50;;;;;;;0.20;0.10;;;;;;;;;;5024814;28;22033;-85
2023/07/03 09:58:17;;;;;;;0.20;0.10;;;;;;;;;;5037972;28;20038;-81
2023/07/03 10:00:47;;;;;;;0.22;0.10;;;;;;;;;;5015046;28;20401;-82
2023/07/03 10:03:13;;;;;;;0.20;0.10;;;;;;;;;;5021376;28;20330;-81
2023/07/03 10:05:42;;;;;;;0.20;0.10;;;;;;;;;;5031094;28;20166;-81
2023/07/03 10:08:09;;;;;;;0.20;0.10;;;;;;;;;;5033749;28;20494;-80
2023/07/03 10:10:36;;;;;;;0.20;0.10;;;;;;;;;;5035707;28;20358;-79
2023/07/03 10:13:07;;;;;;;0.20;0.10;;;;;;;;;;5036405;28;20094;-81
2023/07/03 10:15:36;;;;;;;0.20;0.10;;;;;;;;;;5025522;28;20141;-81
2023/07/03 10:18:21;;;;;;;0.20;0.10;;;;;;;;;;5006647;28;20076;-80
2023/07/03 10:20:49;;;;;;;0.20;0.20;;;;;;;;;;5037282;28;20501;-80
2023/07/03 10:23:19;;;;;;;0.20;0.10;;;;;;;;;;5039666;28;20171;-80
2023/07/03 10:25:51;;;;;;;0.20;0.10;;;;;;;;;;5033879;28;20545;-80
2023/07/03 10:28:38;;;;;;;0.20;0.10;;;;;;;;;;5033183;28;20045;-82
2023/07/03 10:31:06;;;;;;;0.20;0.10;;;;;;;;;;5033584;28;20036;-80
2023/07/03 10:33:34;;;;;;;0.20;0.10;;;;;;;;;;5011223;28;20044;-81
2023/07/03 10:36:02;;;;;;;0.20;0.10;;;;;;;;;;5029162;28;21336;-82
2023/07/03 10:38:49;;;;;;;0.20;0.10;;;;;;;;;;5034764;28;20045;-80
2023/07/03 10:41:20;;;;;;;0.20;0.10;;;;;;;;;;5034143;28;20407;-81
2023/07/03 10:43:51;;;;;;;0.20;0.10;;;;;;;;;;5040175;28;20033;-80
2023/07/03 10:46:30;;;;;;;0.40;0.35;;;;;;;;;;5033716;28;20500;-81
2023/07/03 10:48:59;;;;;;;0.20;0.10;;;;;;;;;;5015652;28;20172;-80
2023/07/03 10:51:42;;;;;;;0.20;0.10;;;;;;;;;;5019168;28;20114;-80
2023/07/03 10:54:21;;;;;;;0.20;0.10;;;;;;;;;;5031260;28;20400;-80
2023/07/03 10:56:50;;;;;;;0.20;0.10;;;;;;;;;;5030870;28;20037;-82
2023/07/03 10:59:20;;;;;;;0.47;0.28;;;;;;;;;;5035756;28;20493;-80
2023/07/03 11:01:53;;;;;;;0.20;0.10;;;;;;;;;;5040894;28;20205;-80
2023/07/03 11:04:21;;;;;;;0.45;0.17;;;;;;;;;;5038912;28;20040;-80
2023/07/03 11:06:53;;;;;;;0.20;0.10;;;;;;;;;;5012210;28;20739;-81
2023/07/03 11:09:42;;;;;;;0.20;0.10;;;;;;;;;;5037785;28;20049;-81
2023/07/03 11:12:27;;;;;;;0.20;0.10;;;;;;;;;;5031303;28;20049;-80
2023/07/03 11:14:58;;;;;;;0.20;0.10;;;;;;;;;;5034559;28;20098;-83
2023/07/03 11:17:30;;;;;;;0.20;0.10;;;;;;;;;;5041250;28;20091;-80
2023/07/03 11:20:05;;;;;;;0.20;0.10;;;;;;;;;;5019061;28;20062;-81
2023/07/03 11:22:41;;;;;;;0.20;0.00;;;;;;;;;;5042917;28;20037;-81
2023/07/03 11:25:11;;;;;;;0.20;0.10;;;;;;;;;;5041592;28;20102;-80
2023/07/03 11:28:04;;;;;;;0.20;0.10;;;;;;;;;;5040575;28;20541;-82
2023/07/03 11:30:31;;;;;;;0.20;0.10;;;;;;;;;;4991867;28;20053;-82
2023/07/03 11:32:59;;;;;;;0.20;0.10;;;;;;;;;;5013769;28;20048;-81
2023/07/03 11:35:26;;;;;;;0.20;0.10;;;;;;;;;;5043690;28;20049;-80
2023/07/03 11:38:03;;;;;;;0.20;0.10;;;;;;;;;;5019082;28;20378;-79
2023/07/03 11:40:29;;;;;;;0.20;0.10;;;;;;;;;;5035711;28;20096;-81
2023/07/03 11:43:14;;;;;;;1.08;0.68;;;;;;;;;;5032784;28;20061;-80
2023/07/03 11:45:40;;;;;;;0.20;0.10;;;;;;;;;;5033729;28;20041;-81
2023/07/03 11:48:25;;;;;;;0.20;0.10;;;;;;;;;;5033083;28;20245;-79
2023/07/03 11:51:01;;;;;;;0.20;0.10;;;;;;;;;;5037785;28;20045;-80
2023/07/03 11:53:34;;;;;;;0.20;0.10;;;;;;;;;;5021196;28;20036;-80
2023/07/03 11:56:00;;;;;;;0.20;0.10;;;;;;;;;;5029525;28;20037;-81
2023/07/03 11:58:29;;;;;;;0.20;0.10;;;;;;;;;;5035698;28;20037;-81
2023/07/03 12:01:14;;;;;;;0.20;0.10;;;;;;;;;;5019848;28;20256;-81
2023/07/03 12:03:59;;;;;;;0.20;0.00;;;;;;;;;;5023835;28;20032;-81
2023/07/03 12:06:40;;;;;;;0.20;0.10;;;;;;;;;;5018776;28;20036;-82
2023/07/03 12:09:21;;;;;;;0.20;0.10;;;;;;;;;;5039962;28;20470;-80
2023/07/03 12:11:59;;;;;;;0.20;0.10;;;;;;;;;;5018518;28;21671;-78
2023/07/03 12:14:44;;;;;;;0.20;0.10;;;;;;;;;;5036483;28;20545;-76
2023/07/03 12:17:16;;;;;;;0.20;0.10;;;;;;;;;;5038880;28;20095;-78
2023/07/03 12:19:43;;;;;;;0.20;0.10;;;;;;;;;;5039954;28;20450;-79
2023/07/03 12:22:11;;;;;;;0.20;0.10;;;;;;;;;;5033371;28;20066;-78
2023/07/03 12:24:37;;;;;;;0.20;0.10;;;;;;;;;;5025090;28;20041;-79
2023/07/03 12:27:04;;;;;;;0.20;0.10;;;;;;;;;;5034098;28;20295;-83
2023/07/03 12:29:32;;;;;;;0.20;0.10;;;;;;;;;;5039231;28;20181;-80
2023/07/03 12:32:07;;;;;;;0.20;0.10;;;;;;;;;;5027296;28;20101;-80
2023/07/03 12:34:33;;;;;;;0.20;0.10;;;;;;;;;;5014843;28;20478;-79
2023/07/03 12:37:02;;;;;;;0.20;0.10;;;;;;;;;;5014054;28;20060;-81
2023/07/03 12:39:28;;;;;;;0.20;0.10;;;;;;;;;;5015340;28;20036;-80
2023/07/03 12:41:54;;;;;;;0.20;0.10;;;;;;;;;;5038755;28;20083;-80
2023/07/03 12:44:23;;;;;;;0.20;0.10;;;;;;;;;;5032629;28;20051;-78
2023/07/03 12:46:49;;;;;;;0.20;0.10;;;;;;;;;;5035418;28;20064;-79
2023/07/03 12:49:16;;;;;;;0.20;0.10;;;;;;;;;;5039415;28;20036;-77
2023/07/03 12:51:49;;;;;;;0.30;0.30;;;;;;;;;;5037997;28;20054;-82
2023/07/03 12:54:15;;;;;;;0.20;0.10;;;;;;;;;;5029881;28;20040;-81
2023/07/03 12:56:41;;;;;;;0.20;0.10;;;;;;;;;;5024994;28;20037;-80
2023/07/03 12:59:08;;;;;;;0.20;0.00;;;;;;;;;;5033221;28;20075;-79
2023/07/03 13:01:35;;;;;;;0.20;0.10;;;;;;;;;;5034930;28;20520;-80
2023/07/03 13:04:02;;;;;;;0.22;0.22;;;;;;;;;;5034934;28;20056;-81
2023/07/03 13:06:29;;;;;;;0.20;0.10;;;;;;;;;;5036278;28;20037;-83
2023/07/03 13:08:56;;;;;;;0.20;0.10;;;;;;;;;;5039021;28;21015;-80
2023/07/03 13:11:34;;;;;;;0.20;0.10;;;;;;;;;;5022584;28;20040;-79
2023/07/03 13:14:07;;;;;;;0.20;0.10;;;;;;;;;;5039287;28;20044;-80
2023/07/03 13:16:34;;;;;;;0.47;0.20;;;;;;;;;;5018865;28;20041;-79
2023/07/03 13:19:01;;;;;;;0.20;0.10;;;;;;;;;;5038265;28;20510;-80
2023/07/03 13:21:27;;;;;;;0.20;0.10;;;;;;;;;;5038639;28;20133;-82
2023/07/03 13:23:53;;;;;;;0.20;0.10;;;;;;;;;;5034241;28;20037;-80
2023/07/03 13:26:26;;;;;;;0.52;0.20;;;;;;;;;;5041510;28;20059;-81
2023/07/03 13:29:00;;;;;;;0.20;0.10;;;;;;;;;;5067685;22;20048;-85
2023/07/03 13:31:30;;;;;;;0.20;0.10;;;;;;;;;;5067071;28;20040;-84
2023/07/03 13:34:15;;;;;;;0.20;0.10;;;;;;;;;;5046982;28;20048;-86
2023/07/03 13:37:09;;;;;;;0.20;0.10;;;;;;;;;;5036586;28;20309;-82
2023/07/03 13:39:38;;;;;;;0.20;0.10;;;;;;;;;;5034393;28;20045;-85
2023/07/03 13:42:07;;;;;;;0.20;0.10;;;;;;;;;;5024094;28;20033;-83
2023/07/03 13:44:38;;;;;;;0.20;0.10;;;;;;;;;;5035037;28;20397;-82
2023/07/03 13:47:07;;;;;;;0.20;0.10;;;;;;;;;;5043578;28;20420;-88
2023/07/03 13:49:33;;;;;;;0.20;0.10;;;;;;;;;;5042093;28;20041;-85
2023/07/03 13:51:59;;;;;;;0.20;0.10;;;;;;;;;;5019736;28;20049;-85
2023/07/03 13:54:25;;;;;;;0.20;0.10;;;;;;;;;;5018037;28;20412;-84
2023/07/03 13:56:52;;;;;;;0.20;0.10;;;;;;;;;;5019823;28;20525;-81
2023/07/03 13:59:18;;;;;;;0.20;0.10;;;;;;;;;;5047270;28;20461;-86
2023/07/03 14:01:44;;;;;;;0.65;0.65;;;;;;;;;;5022910;28;20065;-82
2023/07/03 14:04:11;;;;;;;0.20;0.10;;;;;;;;;;5013557;28;20088;-83
2023/07/03 14:06:37;;;;;;;0.20;0.10;;;;;;;;;;5022543;28;20041;-83
2023/07/03 14:09:10;;;;;;;0.20;0.10;;;;;;;;;;5026968;28;20109;-86
2023/07/03 14:11:42;;;;;;;0.20;0.10;;;;;;;;;;5025657;28;20100;-83
2023/07/03 14:14:19;;;;;;;0.20;0.10;;;;;;;;;;5038928;28;20075;-86
2023/07/03 14:16:49;;;;;;;0.52;0.35;;;;;;;;;;5023638;28;20363;-86
2023/07/03 14:19:17;;;;;;;0.20;0.10;;;;;;;;;;5032984;28;20041;-83
2023/07/03 14:21:44;;;;;;;1.50;0.95;;;;;;;;;;5042824;28;20055;-83
2023/07/03 14:24:12;;;;;;;0.20;0.10;;;;;;;;;;5008646;28;20422;-86
2023/07/03 14:26:41;;;;;;;0.20;0.10;;;;;;;;;;5037310;28;20110;-86
2023/07/03 14:29:13;;;;;;;0.40;0.30;;;;;;;;;;5040130;28;20048;-82
2023/07/03 14:31:39;;;;;;;0.20;0.10;;;;;;;;;;5022669;28;20041;-83
2023/07/03 14:34:05;;;;;;;0.20;0.10;;;;;;;;;;5026942;28;20076;-84
2023/07/03 14:36:31;;;;;;;0.20;0.10;;;;;;;;;;5014398;28;20037;-85
2023/07/03 14:38:57;;;;;;;0.20;0.10;;;;;;;;;;5032181;28;20053;-84
2023/07/03 14:41:24;;;;;;;0.25;0.20;;;;;;;;;;5011843;28;20116;-84
2023/07/03 14:43:50;;;;;;;0.63;0.43;;;;;;;;;;5011276;28;20045;-88
2023/07/03 14:46:16;;;;;;;0.20;0.10;;;;;;;;;;5012403;28;20037;-83
2023/07/03 14:48:45;;;;;;;0.20;0.10;;;;;;;;;;5024173;28;20049;-83
2023/07/03 14:51:11;;;;;;;0.20;0.10;;;;;;;;;;5045714;28;20041;-82
2023/07/03 14:53:39;;;;;;;0.20;0.10;;;;;;;;;;5032112;28;20045;-84
2023/07/03 14:56:06;;;;;;;0.20;0.10;;;;;;;;;;5046690;28;20805;-83
2023/07/03 14:58:32;;;;;;;0.20;0.10;;;;;;;;;;5047106;28;20053;-80